• Join FlightAware (Why Join?)
  • Login
  • US Flag 
12:58AM EST


 

Airport Tracker/Info


-or-


 

Live Flight TrackerFlight Track Log ✈ EJA122 ✈ 21-Dec-2013 ✈ KLGA - KPBI

Flight Track Log - Related Links

Times and Time Zones

All times are in EST time to prevent confusion due to time zone crossing. See the EJA122 flight status page for this flight to view local times or setup timezone preferences in your user account.

Time Position Orientation Groundspeed Altitude Reporting Facility
EST Latitude Longitude Course Direction KTS MPH feet Rate Location/Type
10:31AM 40.8000 -73.9000 225° Southwest 188 216 1,800  Level New York TRACON
10:33AM 40.8333 -73.9500 311° West 208 239 5,400 2,940 Climbing New York TRACON
10:34AM 40.7667 -73.9833 201° Southwest 226 260 8,000 2,820 Climbing New York TRACON
10:35AM 40.7167 -74.0167 207° Southwest 234 269 11,100 1,980 Climbing New York TRACON
10:36AM 40.6500 -74.0500 201° Southwest 257 296 12,000 540 Climbing New York TRACON
10:37AM 40.3018 -74.1240 225° Southwest  Level Estimated
10:37AM 40.5697 -74.1397 220° Southwest 258 297 12,600  Level New York Center
10:38AM 40.4881 -74.1603 191° South 273 314 14,100 1,380 Climbing New York Center
10:39AM 40.4064 -74.1753 188° South 321 369 15,400 1,920 Climbing New York Center
10:40AM 40.3014 -74.1947 188° South 349 402 18,000 2,400 Climbing New York Center
10:41AM 40.2219 -74.2097 188° South 343 395 20,300 1,560 Climbing New York Center
10:43AM 40.0372 -74.2447 188° South 335 386 22,900 1,200 Climbing Washington Center
10:44AM 39.9461 -74.3061 207° Southwest 335 386 23,900 1,020 Climbing Washington Center
10:45AM 39.8678 -74.3831 217° Southwest 343 395 25,000 1,080 Climbing Washington Center
10:46AM 39.7894 -74.4656 219° Southwest 358 412 26,200 1,260 Climbing Washington Center
10:47AM 39.7236 -74.5528 226° Southwest 353 406 27,500 1,080 Climbing Washington Center
10:48AM 39.6556 -74.6456 226° Southwest 353 406 28,400 840 Climbing Washington Center
10:49AM 39.5875 -74.7353 225° Southwest 353 406 29,300 840 Climbing Washington Center
10:50AM 39.5194 -74.8247 225° Southwest 353 406 30,100 780 Climbing Washington Center
10:51AM 39.4511 -74.9169 226° Southwest 353 406 30,900 780 Climbing Washington Center
10:52AM 39.3808 -75.0061 224° Southwest 353 406 31,700 660 Climbing Washington Center
10:53AM 39.3247 -75.0792 225° Southwest 353 406 32,300 720 Climbing Washington Center
10:54AM 39.2250 -75.1603 212° Southwest 353 406 33,200 840 Climbing Washington Center
10:55AM 39.1336 -75.2197 207° Southwest 365 420 34,000 360 Climbing Washington Center
10:56AM 39.0422 -75.2869 210° Southwest 371 427 34,000  Level Washington Center
10:57AM 38.9442 -75.3433 204° Southwest 381 438 34,000  Level Washington Center
10:58AM 38.8486 -75.4078 208° Southwest 388 447 34,000  Level Washington Center
10:59AM 38.7486 -75.4744 207° Southwest 388 447 34,000  Level Washington Center
11:00AM 38.6486 -75.5358 206° Southwest 394 453 34,000  Level Washington Center
11:01AM 38.5525 -75.6022 208° Southwest 394 453 34,000  Level Washington Center
11:02AM 38.4547 -75.6686 208° Southwest 394 453 34,000  Level Washington Center
11:03AM 38.3567 -75.7319 207° Southwest 394 453 34,000  Level Washington Center
11:04AM 38.2542 -75.7875 203° Southwest 399 459 34,000  Level Washington Center
11:05AM 38.1561 -75.8531 208° Southwest 399 459 34,000  Level Washington Center
11:06AM 38.0558 -75.9161 206° Southwest 404 465 34,000  Level Washington Center
11:07AM 37.9578 -75.9789 207° Southwest 404 465 34,000  Level Washington Center
11:08AM 37.8553 -76.0442 207° Southwest 404 465 34,000  Level Washington Center
11:09AM 37.7611 -76.1067 208° Southwest 399 459 34,000  Level Washington Center
11:10AM 37.6567 -76.1689 205° Southwest 399 459 34,000  Level Washington Center
11:11AM 37.5561 -76.2311 206° Southwest 404 465 34,000  Level Washington Center
11:12AM 37.4536 -76.2956 207° Southwest 404 465 34,000  Level Washington Center
11:13AM 37.3531 -76.3575 206° Southwest 404 465 34,000  Level Washington Center
11:14AM 37.2506 -76.4217 206° Southwest 404 465 34,000  Level Washington Center
11:15AM 37.1500 -76.4831 206° Southwest 404 465 34,000  Level Washington Center
11:16AM 37.0453 -76.5469 206° Southwest 404 465 34,000  Level Washington Center
11:17AM 36.9425 -76.6106 206° Southwest 409 471 34,000  Level Washington Center
11:18AM 36.8397 -76.6767 207° Southwest 409 471 34,000  Level Washington Center
11:19AM 36.7347 -76.7400 206° Southwest 409 471 34,000  Level Washington Center
11:20AM 36.6319 -76.8058 207° Southwest 409 471 34,000  Level Washington Center
11:21AM 36.5289 -76.8664 205° Southwest 409 471 34,000  Level Washington Center
11:22AM 36.4261 -76.9292 206° Southwest 414 476 34,000  Level Washington Center
11:23AM 36.3211 -76.9919 206° Southwest 414 476 34,000  Level Washington Center
11:24AM 36.2181 -77.0569 207° Southwest 414 476 34,000  Level Washington Center
11:25AM 36.1336 -77.1350 217° Southwest 401 461 34,000  Level Washington Center
11:26AM 36.0428 -77.2206 217° Southwest 401 461 34,000  Level Washington Center
11:27AM 35.9539 -77.3036 217° Southwest 406 467 34,000  Level Washington Center
11:28AM 35.8631 -77.3886 217° Southwest 412 474 34,000  Level Washington Center
11:29AM 35.7697 -77.4761 217° Southwest 418 481 34,000  Level Washington Center
11:30AM 35.6789 -77.5583 216° Southwest 418 481 34,000  Level Washington Center
11:31AM 35.5897 -77.6431 218° Southwest 418 481 34,000  Level Washington Center
11:32AM 35.4967 -77.7247 216° Southwest 418 481 34,000  Level Washington Center
11:33AM 35.4072 -77.8092 218° Southwest 413 475 34,000  Level Washington Center
11:34AM 35.3139 -77.8906 215° Southwest 413 475 34,000  Level Washington Center
11:35AM 35.2333 -77.9669 218° Southwest 413 475 34,000  Level Washington Center
11:36AM 35.1419 -78.0508 217° Southwest 413 475 34,000  Level Washington Center
11:37AM 35.0503 -78.1367 217° Southwest 413 475 34,000  Level Washington Center
11:39AM 34.8325 -78.3328 216° Southwest 412 474 34,000  Level Jacksonville Center
11:40AM 34.7439 -78.4208 219° Southwest 417 480 34,000  Level Jacksonville Center
11:41AM 34.6467 -78.5014 214° Southwest 422 486 34,000  Level Jacksonville Center
11:42AM 34.5556 -78.5842 217° Southwest 422 486 34,000 -60 Level Jacksonville Center
11:43AM 34.4667 -78.6692 218° Southwest 415 478 33,900  Descending Jacksonville Center
11:44AM 34.3756 -78.7492 216° Southwest 415 478 34,000  Climbing Jacksonville Center
11:45AM 34.2803 -78.8342 216° Southwest 420 483 34,000  Level Jacksonville Center
11:46AM 34.1889 -78.9136 216° Southwest 420 483 34,000  Level Jacksonville Center
11:47AM 34.0847 -78.9836 209° Southwest 420 483 34,000  Level Jacksonville Center
11:48AM 33.9803 -79.0508 208° Southwest 425 489 34,000  Level Jacksonville Center
11:49AM 33.8781 -79.1181 209° Southwest 425 489 34,000  Level Jacksonville Center
11:50AM 33.7778 -79.1847 209° Southwest 425 489 34,000  Level Jacksonville Center
11:51AM 33.6692 -79.2517 207° Southwest 416 479 34,000  Level Jacksonville Center
11:52AM 33.5689 -79.3181 209° Southwest 411 473 34,000  Level Jacksonville Center
11:53AM 33.4664 -79.3844 208° Southwest 411 473 34,000  Level Jacksonville Center
11:54AM 33.3639 -79.4506 208° Southwest 411 473 34,000  Level Jacksonville Center
11:55AM 33.2714 -79.5114 209° Southwest 416 479 34,000  Level Jacksonville Center
11:56AM 33.1667 -79.5750 207° Southwest 421 484 34,000 -60 Level Jacksonville Center
11:57AM 33.0619 -79.6433 209° Southwest 427 491 33,900  Descending Jacksonville Center
11:58AM 32.9575 -79.7114 209° Southwest 427 491 34,000  Climbing Jacksonville Center
11:59AM 32.8525 -79.7794 209° Southwest 427 491 34,000  Level Jacksonville Center
12:00PM 32.7478 -79.8472 209° Southwest 427 491 34,000  Level Jacksonville Center
12:01PM 32.6428 -79.9125 208° Southwest 427 491 34,000  Level Jacksonville Center
12:02PM 32.5381 -79.9800 209° Southwest 427 491 34,000  Level Jacksonville Center
12:03PM 32.4331 -80.0472 208° Southwest 427 491 34,000  Level Jacksonville Center
12:04PM 32.3261 -80.1144 208° Southwest 427 491 34,000  Level Jacksonville Center
12:05PM 32.2078 -80.1475 193° South 427 491 34,000  Level Jacksonville Center
12:06PM 32.0850 -80.1636 186° South 432 497 34,000  Level Jacksonville Center
12:07PM 31.9644 -80.1842 188° South 438 504 34,000  Level Jacksonville Center
12:08PM 31.8414 -80.2025 187° South 443 510 34,000  Level Jacksonville Center
12:09PM 31.7231 -80.2231 188° South 443 510 34,000  Level Jacksonville Center
12:10PM 31.6133 -80.2775 203° Southwest 437 503 34,000  Level Jacksonville Center
12:11PM 31.5019 -80.3367 204° Southwest 432 497 34,000  Level Jacksonville Center
12:12PM 31.3922 -80.3906 203° Southwest 432 497 34,000  Level Jacksonville Center
12:13PM 31.2850 -80.4469 204° Southwest 432 497 34,000  Level Jacksonville Center
12:14PM 31.1794 -80.5081 206° Southwest 432 497 34,000  Level Jacksonville Center
12:15PM 31.0697 -80.5594 202° Southwest 427 491 34,000  Level Jacksonville Center
12:16PM 30.9603 -80.6178 205° Southwest 427 491 34,000  Level Jacksonville Center
12:17PM 30.8528 -80.6736 204° Southwest 427 491 34,000  Level Jacksonville Center
12:18PM 30.7431 -80.7294 204° Southwest 427 491 34,000  Level Jacksonville Center
12:19PM 30.6219 -80.7392 184° South 428 493 34,000  Level Jacksonville Center
12:20PM 30.4967 -80.7350 178° South 433 498 34,000  Level Jacksonville Center
12:21PM 30.3756 -80.7328 179° South 439 505 34,000  Level Jacksonville Center
12:22PM 30.2522 -80.7283 178° South 439 505 34,000  Level Jacksonville Center
12:23PM 30.1292 -80.7239 178° South 439 505 34,000  Level Jacksonville Center
12:24PM 30.0058 -80.7194 178° South 439 505 34,000 -300 Level Jacksonville Center
12:25PM 29.8825 -80.7175 179° South 439 505 33,400 -900 Descending Jacksonville Center
12:26PM 29.7636 -80.7153 179° South 439 505 32,200 -720 Descending Jacksonville Center
12:27PM 29.6444 -80.7108 178° South 433 498 32,000 -60 Descending Jacksonville Center
12:30PM 29.3425 -80.7006 178° South 453 521 32,000  Level Miami Center
12:31PM 29.2194 -80.6986 179° South 448 516 32,000  Level Miami Center
12:32PM 29.0986 -80.6944 178° South 443 510 32,000  Level Miami Center
12:33PM 28.9778 -80.6878 177° South 438 504 32,000  Level Miami Center
12:34PM 28.8547 -80.6858 179° South 438 504 32,000  Level Miami Center
12:35PM 28.7361 -80.6772 176° South 438 504 32,000 -60 Level Miami Center
12:36PM 28.6103 -80.6161 157° South 444 511 31,900 -780 Descending Miami Center
12:37PM 28.4967 -80.5744 162° South 444 511 30,500 -1,440 Descending Miami Center
12:40PM 28.1742 -80.4531 142° Southeast 427 491 26,200 -1,800 Descending Miami Center
12:42PM 27.9281 -80.3608 162° South 441 507 21,700 -2,220 Descending Miami Center
12:43PM 27.8122 -80.3197 163° South 434 499 19,600 -2,100 Descending Miami Center
12:44PM 27.7192 -80.2839 161° South 417 480 17,600 -2,100 Descending Miami Center
12:45PM 27.6136 -80.2481 163° South 403 464 15,500 -2,340 Descending Miami Center
12:46PM 27.5039 -80.2050 161° South 392 451 13,000 -2,400 Descending Miami Center
12:47PM 27.4108 -80.1719 162° South 371 427 10,800 -1,500 Descending Miami Center
12:48PM 27.3300 -80.1439 163° South 324 373 10,000 -420 Descending Miami Center
12:49PM 27.2572 -80.1325 172° South 303 349 10,000 -660 Level Miami Center
12:50PM 27.1847 -80.1000 158° South 283 326 8,700 -1,800 Descending Miami Center
12:51PM 27.1083 -80.0606 155° Southeast 273 314 6,400 -2,100 Descending Miami Center
12:52PM 27.0464 -80.0286 155° Southeast 258 297 4,500 -1,200 Descending Miami Center
12:53PM 26.9886 -80.0014 157° South 239 275 4,000 -300 Descending Miami Center
12:54PM 26.9300 -80.0092 187° South 233 268 4,000  Level Miami Center
12:55PM 26.8789 -80.0472 214° Southwest 222 255 4,000  Level Miami Center
12:57PM 26.7948 -80.1905 265° West  Level FlightAware Approximate
01:04PM 26.6832 -80.0956 110° East  Level Estimated
01:05PM 26.6832 -80.0956 110° East  Level Estimated
01:06PM 26.6832 -80.0956 110° East  Level Estimated
01:07PM 26.6832 -80.0956 110° East  Level Estimated
01:08PM 26.6832 -80.0956 110° East  Level Estimated
01:09PM 26.6832 -80.0956 110° East  Level Estimated
01:10PM 26.6832 -80.0956 110° East  Level Estimated